createdAt,value
2022-11-10T00:01:50.678Z,16.48
2022-11-10T00:04:11.231Z,19.05
2022-11-10T00:06:31.722Z,20.15
2022-11-10T00:08:52.511Z,18.02
2022-11-10T00:11:13.531Z,16.88
2022-11-10T00:13:56.535Z,18.92
2022-11-10T00:16:36.041Z,19.35
2022-11-10T00:18:56.979Z,16.83
2022-11-10T00:21:18.582Z,17.33
2022-11-10T00:23:39.740Z,17.65
2022-11-10T00:26:03.172Z,18.55
2022-11-10T00:28:23.847Z,18.75
2022-11-10T00:30:46.954Z,21.35
2022-11-10T00:33:08.112Z,21.05
2022-11-10T00:35:29.014Z,17.15
2022-11-10T00:37:50.841Z,19.98
2022-11-10T00:40:12.046Z,19.35
2022-11-10T00:42:32.955Z,20.67
2022-11-10T00:44:54.084Z,20.92
2022-11-10T00:47:15.056Z,18.27
2022-11-10T00:49:35.636Z,17.35
2022-11-10T00:52:47.567Z,21.98
2022-11-10T00:55:09.257Z,20.65
2022-11-10T00:57:29.802Z,23.63
2022-11-10T00:59:50.061Z,21.98
2022-11-10T01:02:10.823Z,21.88
2022-11-10T01:04:31.780Z,22.17
2022-11-10T01:06:53.063Z,18.60
2022-11-10T01:09:13.399Z,17.60
2022-11-10T01:11:33.677Z,16.02
2022-11-10T01:13:56.525Z,16.98
2022-11-10T01:16:20.863Z,19.58
2022-11-10T01:18:41.738Z,18.70
2022-11-10T01:21:02.492Z,19.15
2022-11-10T01:23:23.624Z,16.83
2022-11-10T01:25:44.773Z,21.15
2022-11-10T01:32:07.273Z,20.67
2022-11-10T01:34:28.871Z,18.63
2022-11-10T01:36:49.609Z,16.95
2022-11-10T01:39:11.008Z,18.65
2022-11-10T01:41:31.665Z,17.25
2022-11-10T01:43:52.140Z,18.35
2022-11-10T01:46:14.234Z,16.85
2022-11-10T01:48:57.633Z,18.90
2022-11-10T01:51:32.685Z,14.57
2022-11-10T01:53:58.395Z,19.13
2022-11-10T01:56:19.524Z,15.50
2022-11-10T01:58:46.157Z,17.38
2022-11-10T02:01:10.527Z,19.88
2022-11-10T02:03:43.213Z,18.02
2022-11-10T02:06:07.069Z,16.17
2022-11-10T02:08:28.206Z,18.33
2022-11-10T02:10:52.091Z,15.05
2022-11-10T02:13:13.528Z,13.63
2022-11-10T02:15:34.368Z,15.55
2022-11-10T02:17:55.165Z,19.55
2022-11-10T02:20:19.505Z,19.95
2022-11-10T02:22:40.690Z,16.77
2022-11-10T02:25:01.163Z,16.27
2022-11-10T02:27:21.773Z,19.17
2022-11-10T02:29:42.501Z,16.27
2022-11-10T02:32:05.482Z,19.70
2022-11-10T02:34:26.120Z,19.92
2022-11-10T02:36:49.215Z,18.83
2022-11-10T02:39:10.211Z,17.67
2022-11-10T02:41:30.923Z,19.70
2022-11-10T02:43:52.912Z,19.20
2022-11-10T02:46:14.181Z,19.38
2022-11-10T02:48:34.894Z,19.75
2022-11-10T02:50:56.126Z,17.67
2022-11-10T02:53:16.904Z,18.55
2022-11-10T02:55:37.863Z,21.42
2022-11-10T02:57:58.578Z,17.75
2022-11-10T03:00:21.740Z,18.23
2022-11-10T03:02:42.469Z,19.02
2022-11-10T03:05:02.911Z,15.98
2022-11-10T03:07:26.246Z,17.85
2022-11-10T03:09:46.888Z,15.80
2022-11-10T03:12:07.742Z,18.75
2022-11-10T03:14:28.528Z,18.27
2022-11-10T03:16:53.043Z,17.33
2022-11-10T03:19:13.726Z,18.00
2022-11-10T03:21:34.639Z,15.48
2022-11-10T03:23:55.558Z,16.38
2022-11-10T03:26:18.278Z,16.75
2022-11-10T03:28:38.999Z,20.90
2022-11-10T03:31:03.164Z,19.35
2022-11-10T03:33:26.587Z,17.95
2022-11-10T03:35:47.138Z,16.65
2022-11-10T03:38:08.109Z,15.15
2022-11-10T03:40:28.924Z,18.77
2022-11-10T03:42:49.948Z,20.15
2022-11-10T03:45:12.753Z,16.13
2022-11-10T03:47:35.973Z,17.52
2022-11-10T03:49:56.321Z,17.00
2022-11-10T03:52:18.076Z,19.00
2022-11-10T03:54:38.550Z,22.55
2022-11-10T03:56:59.509Z,21.45
2022-11-10T04:00:10.047Z,22.38
2022-11-10T04:02:30.977Z,25.63
2022-11-10T04:05:10.432Z,23.90
2022-11-10T04:07:49.917Z,23.50
2022-11-10T04:10:10.927Z,23.50
2022-11-10T04:12:51.629Z,22.45
2022-11-10T04:15:31.413Z,21.02
2022-11-10T04:17:52.341Z,20.17
2022-11-10T04:20:13.118Z,18.15
2022-11-10T04:22:52.537Z,19.55
2022-11-10T04:25:13.440Z,19.92
2022-11-10T04:27:33.949Z,19.77
2022-11-10T04:29:54.933Z,20.15
2022-11-10T04:32:15.790Z,21.05
2022-11-10T04:34:36.222Z,22.25
2022-11-10T04:36:57.093Z,26.20
2022-11-10T04:39:18.293Z,22.58
2022-11-10T04:41:38.834Z,20.88
2022-11-10T04:44:00.637Z,21.73
2022-11-10T04:46:31.573Z,20.52
2022-11-10T04:48:53.173Z,24.20
2022-11-10T04:51:14.791Z,19.92
2022-11-10T04:53:36.189Z,24.65
2022-11-10T04:55:59.710Z,19.73
2022-11-10T04:58:20.691Z,24.35
2022-11-10T05:00:42.263Z,21.48
2022-11-10T05:03:06.725Z,17.67
2022-11-10T05:05:27.241Z,23.20
2022-11-10T05:07:48.758Z,20.05
2022-11-10T05:10:12.188Z,21.83
2022-11-10T05:12:32.808Z,19.42
2022-11-10T05:14:53.257Z,32.50
2022-11-10T05:17:17.071Z,34.40
2022-11-10T05:19:37.594Z,35.22
2022-11-10T05:21:58.723Z,27.95
2022-11-10T05:24:19.664Z,28.02
2022-11-10T05:26:39.991Z,26.38
2022-11-10T05:29:00.871Z,26.98
2022-11-10T05:31:21.240Z,26.40
2022-11-10T05:33:42.076Z,24.90
2022-11-10T05:36:02.903Z,24.13
2022-11-10T05:38:23.373Z,24.55
2022-11-10T05:40:44.340Z,17.58
2022-11-10T05:43:04.793Z,20.48
2022-11-10T05:45:27.190Z,20.98
2022-11-10T05:47:48.192Z,22.70
2022-11-10T05:50:11.221Z,22.58
2022-11-10T05:52:32.155Z,21.02
2022-11-10T05:54:55.619Z,27.33
2022-11-10T05:57:16.158Z,23.52
2022-11-10T05:59:36.355Z,21.50
2022-11-10T06:01:56.455Z,20.80
2022-11-10T06:04:16.948Z,22.00
2022-11-10T06:06:37.438Z,24.20
2022-11-10T06:08:59.383Z,23.10
2022-11-10T06:11:20.763Z,30.02
2022-11-10T06:13:41.169Z,32.08
2022-11-10T06:16:02.160Z,34.55
2022-11-10T06:18:22.730Z,28.10
2022-11-10T06:20:43.402Z,25.85
2022-11-10T06:23:10.318Z,27.40
2022-11-10T06:25:33.195Z,25.73
2022-11-10T06:27:53.990Z,30.25
2022-11-10T06:30:15.555Z,24.63
2022-11-10T06:32:35.716Z,28.85
2022-11-10T06:35:00.309Z,27.27
2022-11-10T06:37:21.292Z,25.17
2022-11-10T06:39:41.568Z,27.50
2022-11-10T06:42:01.826Z,27.88
2022-11-10T06:44:24.319Z,30.42
2022-11-10T06:46:48.140Z,32.38
2022-11-10T06:49:08.959Z,33.20
2022-11-10T06:51:29.558Z,34.78
2022-11-10T06:53:51.294Z,33.58
2022-11-10T06:56:11.722Z,38.03
2022-11-10T06:58:32.465Z,50.60
2022-11-10T07:00:53.175Z,45.30
2022-11-10T07:03:15.047Z,53.05
2022-11-10T07:05:36.956Z,43.70
2022-11-10T07:08:04.138Z,47.33
2022-11-10T07:10:24.373Z,41.65
2022-11-10T07:12:45.112Z,48.78
2022-11-10T07:15:06.479Z,55.38
2022-11-10T07:17:27.137Z,49.80
2022-11-10T07:19:47.199Z,50.08
2022-11-10T07:22:11.298Z,53.25
2022-11-10T07:24:32.867Z,55.67
2022-11-10T07:26:53.613Z,54.22
2022-11-10T07:29:14.239Z,47.38
2022-11-10T07:31:34.686Z,42.22
2022-11-10T07:33:55.059Z,40.78
2022-11-10T07:36:15.275Z,38.92
2022-11-10T07:38:35.872Z,34.70
2022-11-10T07:40:56.956Z,34.40
2022-11-10T07:43:17.507Z,48.70
2022-11-10T07:45:37.679Z,41.80
2022-11-10T07:48:00.837Z,38.20
2022-11-10T07:50:21.248Z,42.00
2022-11-10T07:52:42.355Z,44.22
2022-11-10T07:55:03.582Z,52.28
2022-11-10T07:57:24.700Z,50.33
2022-11-10T07:59:45.183Z,48.40
2022-11-10T08:02:06.203Z,50.47
2022-11-10T08:04:30.062Z,48.65
2022-11-10T08:06:50.754Z,56.05
2022-11-10T08:09:11.173Z,61.25
2022-11-10T08:11:32.069Z,63.92
2022-11-10T08:13:52.651Z,56.20
2022-11-10T08:16:13.413Z,53.22
2022-11-10T08:18:35.747Z,55.80
2022-11-10T08:21:25.067Z,59.38
2022-11-10T08:23:45.614Z,50.95
2022-11-10T08:26:06.182Z,49.53
2022-11-10T08:28:27.957Z,46.33
2022-11-10T08:30:49.567Z,43.05
2022-11-10T08:33:12.920Z,47.33
2022-11-10T08:35:36.730Z,40.97
2022-11-10T08:38:03.999Z,50.63
2022-11-10T08:40:30.015Z,46.67
2022-11-10T08:43:01.970Z,45.45
2022-11-10T08:45:22.714Z,44.45
2022-11-10T08:47:44.938Z,42.42
2022-11-10T08:50:07.401Z,45.15
2022-11-10T08:52:28.154Z,35.40
2022-11-10T08:54:50.297Z,35.63
2022-11-10T08:57:11.085Z,25.50
2022-11-10T08:59:32.286Z,32.45
2022-11-10T09:01:53.000Z,29.95
2022-11-10T09:04:15.999Z,28.75
2022-11-10T09:06:37.428Z,31.55
2022-11-10T09:08:57.975Z,31.23
2022-11-10T09:11:18.792Z,26.92
2022-11-10T09:13:39.519Z,29.90
2022-11-10T09:16:04.834Z,26.95
2022-11-10T09:18:25.520Z,26.10
2022-11-10T09:20:46.703Z,28.23
2022-11-10T09:23:12.675Z,33.15
2022-11-10T09:25:33.842Z,34.80
2022-11-10T09:27:56.802Z,37.92
2022-11-10T09:30:18.093Z,36.90
2022-11-10T09:32:38.680Z,35.85
2022-11-10T09:34:59.793Z,32.72
2022-11-10T09:37:20.192Z,31.92
2022-11-10T09:39:41.248Z,32.13
2022-11-10T09:42:02.595Z,31.02
2022-11-10T09:44:34.312Z,31.38
2022-11-10T09:46:58.987Z,32.92
2022-11-10T09:49:31.852Z,32.22
2022-11-10T09:51:54.557Z,29.15
2022-11-10T09:54:33.788Z,29.42
2022-11-10T09:57:00.136Z,25.48
2022-11-10T09:59:27.142Z,24.98
2022-11-10T10:02:19.729Z,24.05
2022-11-10T10:04:54.333Z,23.27
2022-11-10T10:07:37.078Z,22.13
2022-11-10T10:10:28.117Z,24.20
2022-11-10T10:13:25.979Z,28.45
2022-11-10T10:16:08.029Z,23.27
2022-11-10T10:18:47.120Z,27.00
2022-11-10T10:21:39.200Z,30.50
2022-11-10T10:24:13.832Z,25.75
2022-11-10T10:26:45.249Z,29.95
2022-11-10T10:29:22.079Z,26.48
2022-11-10T10:31:49.115Z,30.83
2022-11-10T10:34:15.918Z,25.00
2022-11-10T10:36:36.548Z,25.33
2022-11-10T10:39:02.977Z,27.13
2022-11-10T10:41:32.173Z,31.00
2022-11-10T10:43:56.357Z,27.70
2022-11-10T10:46:20.403Z,30.15
2022-11-10T10:48:41.235Z,27.17
2022-11-10T10:51:02.072Z,28.90
2022-11-10T10:53:25.946Z,29.05
2022-11-10T10:55:57.825Z,32.92
2022-11-10T10:58:22.565Z,33.40
2022-11-10T11:00:49.652Z,36.40
2022-11-10T11:03:24.389Z,33.97
2022-11-10T11:06:18.981Z,34.13
2022-11-10T11:08:39.471Z,31.38
2022-11-10T11:11:11.045Z,28.85
2022-11-10T11:13:32.115Z,32.47
2022-11-10T11:16:01.920Z,33.50
2022-11-10T11:18:23.922Z,30.02
2022-11-10T11:21:33.799Z,31.90
2022-11-10T11:24:09.678Z,31.10
2022-11-10T11:26:39.618Z,30.90
2022-11-10T11:29:26.656Z,30.42
2022-11-10T11:31:53.702Z,31.90
2022-11-10T11:34:37.447Z,33.13
2022-11-10T11:37:09.801Z,32.50
2022-11-10T11:40:06.134Z,32.35
2022-11-10T11:42:56.281Z,74.40
2022-11-10T11:45:28.987Z,177.95
2022-11-10T11:48:17.765Z,189.98
2022-11-10T11:51:27.690Z,186.00
2022-11-10T11:54:16.367Z,278.90
2022-11-10T11:56:43.770Z,436.33
2022-11-10T11:59:27.331Z,1413.40
2022-11-10T12:02:18.615Z,1048.43
2022-11-10T12:05:11.536Z,691.60
2022-11-10T12:07:55.239Z,622.72
2022-11-10T12:10:31.076Z,507.80
2022-11-10T12:13:13.904Z,399.45
2022-11-10T12:16:00.889Z,288.55
2022-11-10T12:18:34.075Z,208.27
2022-11-10T12:20:57.438Z,181.20
2022-11-10T12:23:24.320Z,212.27
2022-11-10T12:25:48.101Z,153.25
2022-11-10T12:28:13.884Z,121.28
2022-11-10T12:30:35.844Z,105.05
2022-11-10T12:33:16.809Z,118.50
2022-11-10T12:35:44.601Z,73.85
2022-11-10T12:38:16.363Z,59.55
2022-11-10T12:40:42.319Z,45.08
2022-11-10T12:43:07.302Z,59.33
2022-11-10T12:45:35.927Z,74.95
2022-11-10T12:47:56.729Z,93.32
2022-11-10T12:50:39.961Z,156.98
2022-11-10T12:53:27.913Z,210.65
2022-11-10T12:56:01.826Z,268.13
2022-11-10T12:58:22.877Z,454.50
2022-11-10T13:00:58.154Z,502.45
2022-11-10T13:03:28.686Z,451.95
2022-11-10T13:05:56.006Z,370.85
2022-11-10T13:08:28.186Z,302.25
2022-11-10T13:11:03.059Z,290.35
2022-11-10T13:13:24.845Z,321.10
2022-11-10T13:15:48.802Z,320.00
2022-11-10T13:18:10.441Z,335.92
2022-11-10T13:20:39.983Z,346.60
2022-11-10T13:23:00.583Z,351.50
2022-11-10T13:25:36.805Z,349.30
2022-11-10T13:29:13.010Z,300.20
2022-11-10T13:31:34.598Z,258.63
2022-11-10T13:34:18.224Z,244.02
2022-11-10T13:36:50.011Z,245.98
2022-11-10T13:39:19.602Z,224.90
2022-11-10T13:41:47.274Z,213.77
2022-11-10T13:44:32.790Z,223.25
2022-11-10T13:46:53.971Z,240.93
2022-11-10T13:49:27.244Z,237.93
2022-11-10T13:52:09.659Z,271.33
2022-11-10T13:54:36.544Z,335.33
2022-11-10T13:57:05.267Z,428.55
2022-11-10T13:59:32.747Z,323.58
2022-11-10T14:01:53.490Z,273.95
2022-11-10T14:04:35.914Z,245.23
2022-11-10T14:06:58.039Z,218.85
2022-11-10T14:09:32.290Z,228.35
2022-11-10T14:12:30.864Z,243.45
2022-11-10T14:15:02.429Z,243.90
2022-11-10T14:17:29.045Z,239.48
2022-11-10T14:19:50.162Z,257.10
2022-11-10T14:22:35.462Z,214.45
2022-11-10T14:25:03.184Z,188.90
2022-11-10T14:27:28.354Z,149.95
2022-11-10T14:29:49.423Z,116.25
2022-11-10T14:32:20.495Z,109.75
2022-11-10T14:34:46.840Z,91.75
2022-11-10T14:37:07.500Z,87.95
2022-11-10T14:39:33.488Z,93.75
2022-11-10T14:41:54.583Z,103.60
2022-11-10T14:44:25.125Z,117.35
2022-11-10T14:46:45.762Z,131.82
2022-11-10T14:49:11.013Z,123.25
2022-11-10T14:51:35.143Z,120.57
2022-11-10T14:53:57.896Z,95.60
2022-11-10T14:56:27.114Z,97.10
2022-11-10T14:59:14.047Z,103.43
2022-11-10T15:01:39.017Z,85.00
2022-11-10T15:04:01.899Z,75.05
2022-11-10T15:06:22.661Z,74.18
2022-11-10T15:08:43.408Z,73.00
2022-11-10T15:11:04.157Z,69.78
2022-11-10T15:13:28.368Z,81.80
2022-11-10T15:15:49.107Z,87.80
2022-11-10T15:18:26.031Z,84.00
2022-11-10T15:21:01.655Z,80.22
2022-11-10T15:23:30.602Z,80.03
2022-11-10T15:25:54.204Z,75.13
2022-11-10T15:28:29.693Z,67.15
2022-11-10T15:30:53.492Z,66.22
2022-11-10T15:33:17.061Z,61.92
2022-11-10T15:35:37.633Z,54.08
2022-11-10T15:38:21.417Z,54.40
2022-11-10T15:40:52.131Z,54.15
2022-11-10T15:43:22.439Z,52.03
2022-11-10T15:45:51.084Z,47.47
2022-11-10T15:49:18.808Z,54.38
2022-11-10T15:51:39.877Z,82.35
2022-11-10T15:54:00.309Z,98.30
2022-11-10T15:56:23.884Z,107.13
2022-11-10T15:58:57.861Z,91.00
2022-11-10T16:01:21.597Z,155.57
2022-11-10T16:03:42.741Z,135.98
2022-11-10T16:06:03.331Z,120.00
2022-11-10T16:08:24.478Z,98.85
2022-11-10T16:10:48.214Z,96.53
2022-11-10T16:13:12.139Z,159.82
2022-11-10T16:15:33.410Z,126.18
2022-11-10T16:17:54.142Z,116.28
2022-11-10T16:20:15.774Z,106.95
2022-11-10T16:26:35.889Z,86.60
2022-11-10T16:28:56.982Z,78.53
2022-11-10T16:31:19.289Z,77.15
2022-11-10T16:33:40.205Z,78.57
2022-11-10T16:36:00.555Z,97.88
2022-11-10T16:38:29.668Z,126.13
2022-11-10T16:41:01.173Z,134.52
2022-11-10T16:43:26.071Z,147.82
2022-11-10T16:45:48.864Z,161.18
2022-11-10T16:48:09.712Z,137.23
2022-11-10T16:50:34.552Z,126.85
2022-11-10T16:52:56.606Z,162.02
2022-11-10T16:55:16.956Z,209.00
2022-11-10T16:57:40.053Z,230.63
2022-11-10T17:00:00.690Z,199.52
2022-11-10T17:02:31.447Z,157.98
2022-11-10T17:04:52.011Z,127.43
2022-11-10T17:07:15.003Z,109.20
2022-11-10T17:09:35.626Z,116.20
2022-11-10T17:15:52.011Z,120.80
2022-11-10T17:18:16.111Z,109.05
2022-11-10T17:20:39.972Z,112.80
2022-11-10T17:23:02.755Z,122.43
2022-11-10T17:25:29.116Z,92.57
2022-11-10T17:27:49.702Z,89.55
2022-11-10T17:30:10.867Z,80.93
2022-11-10T17:32:58.079Z,76.80
2022-11-10T17:35:12.008Z,117.13
2022-11-10T17:37:32.591Z,245.27
2022-11-10T17:39:55.269Z,177.13
2022-11-10T17:42:16.577Z,131.90
2022-11-10T17:44:39.427Z,105.82
2022-11-10T17:47:00.317Z,114.43
2022-11-10T17:49:21.102Z,120.25
2022-11-10T17:51:41.643Z,137.23
2022-11-10T17:54:04.622Z,140.68
2022-11-10T17:56:25.543Z,123.68
2022-11-10T17:58:46.655Z,109.80
2022-11-10T18:01:19.103Z,108.93
2022-11-10T18:03:40.232Z,98.72
2022-11-10T18:06:00.747Z,104.25
2022-11-10T18:08:21.268Z,92.75
2022-11-10T18:10:52.442Z,104.25
2022-11-10T18:13:13.003Z,97.28
2022-11-10T18:15:34.815Z,100.88
2022-11-10T18:18:01.025Z,92.07
2022-11-10T18:20:21.784Z,95.75
2022-11-10T18:22:43.611Z,98.75
2022-11-10T18:25:11.299Z,94.80
2022-11-10T18:27:31.897Z,97.05
2022-11-10T18:29:55.790Z,101.43
2022-11-10T18:32:16.801Z,108.93
2022-11-10T18:34:37.609Z,106.43
2022-11-10T18:36:58.800Z,105.25
2022-11-10T18:39:19.481Z,111.05
2022-11-10T18:41:49.084Z,107.03
2022-11-10T18:44:10.578Z,108.05
2022-11-10T18:46:31.577Z,95.00
2022-11-10T18:48:51.807Z,111.53
2022-11-10T18:51:12.822Z,107.72
2022-11-10T18:53:38.117Z,120.63
2022-11-10T18:55:59.455Z,113.72
2022-11-10T18:58:20.942Z,118.03
2022-11-10T19:00:43.216Z,120.78
2022-11-10T19:03:04.248Z,117.93
2022-11-10T19:05:25.427Z,133.40
2022-11-10T19:07:46.140Z,125.43
2022-11-10T19:10:08.315Z,120.32
2022-11-10T19:12:34.234Z,135.18
2022-11-10T19:14:54.865Z,114.47
2022-11-10T19:17:16.262Z,120.15
2022-11-10T19:19:37.378Z,132.20
2022-11-10T19:21:57.618Z,127.88
2022-11-10T19:24:27.803Z,125.53
2022-11-10T19:26:52.735Z,134.10
2022-11-10T19:29:15.353Z,133.43
2022-11-10T19:31:38.181Z,127.97
2022-11-10T19:33:59.970Z,138.80
2022-11-10T19:36:23.184Z,141.85
2022-11-10T19:38:45.536Z,123.22
2022-11-10T19:41:12.277Z,109.95
2022-11-10T19:43:33.860Z,111.30
2022-11-10T19:45:54.445Z,99.40
2022-11-10T19:48:15.426Z,84.38
2022-11-10T19:50:36.045Z,75.38
2022-11-10T19:52:59.374Z,74.40
2022-11-10T19:55:32.348Z,58.75
2022-11-10T19:57:53.179Z,63.08
2022-11-10T20:00:16.082Z,64.95
2022-11-10T20:02:42.734Z,65.32
2022-11-10T20:05:27.117Z,54.53
2022-11-10T20:08:09.844Z,57.38
2022-11-10T20:10:30.799Z,60.40
2022-11-10T20:12:51.688Z,59.83
2022-11-10T20:15:11.932Z,56.15
2022-11-10T20:17:32.517Z,55.92
2022-11-10T20:19:52.898Z,52.00
2022-11-10T20:22:13.815Z,52.72
2022-11-10T20:24:36.272Z,51.53
2022-11-10T20:26:59.332Z,53.22
2022-11-10T20:29:19.861Z,52.83
2022-11-10T20:31:40.343Z,47.83
2022-11-10T20:34:01.079Z,55.50
2022-11-10T20:36:29.624Z,50.25
2022-11-10T20:38:51.095Z,51.13
2022-11-10T20:41:17.650Z,52.35
2022-11-10T20:43:38.834Z,55.97
2022-11-10T20:46:02.029Z,62.35
2022-11-10T20:48:22.829Z,55.22
2022-11-10T20:50:42.958Z,59.97
2022-11-10T20:53:06.083Z,56.10
2022-11-10T20:55:52.113Z,52.58
2022-11-10T20:58:07.128Z,60.53
2022-11-10T21:00:27.720Z,60.42
2022-11-10T21:02:48.307Z,61.53
2022-11-10T21:05:09.335Z,64.60
2022-11-10T21:07:29.899Z,62.97
2022-11-10T21:09:50.763Z,62.78
2022-11-10T21:12:32.700Z,102.78
2022-11-10T21:14:53.299Z,78.75
2022-11-10T21:17:14.085Z,71.15
2022-11-10T21:19:35.563Z,68.68
2022-11-10T21:21:56.233Z,74.88
2022-11-10T21:24:19.846Z,68.10
2022-11-10T21:26:41.600Z,67.95
2022-11-10T21:29:05.105Z,69.97
2022-11-10T21:31:26.387Z,66.13
2022-11-10T21:33:47.450Z,58.75
2022-11-10T21:36:09.127Z,73.10
2022-11-10T21:38:30.204Z,65.75
2022-11-10T21:40:50.872Z,66.20
2022-11-10T21:43:11.806Z,62.92
2022-11-10T21:46:35.299Z,61.35
2022-11-10T21:48:55.758Z,60.72
2022-11-10T21:51:16.083Z,69.03
2022-11-10T21:53:37.154Z,67.05
2022-11-10T21:55:59.314Z,65.88
2022-11-10T21:58:19.857Z,64.43
2022-11-10T22:00:40.457Z,64.93
2022-11-10T22:03:05.967Z,64.22
2022-11-10T22:05:26.855Z,62.05
2022-11-10T22:07:47.386Z,70.18
2022-11-10T22:10:30.186Z,60.53
2022-11-10T22:13:09.336Z,61.22
2022-11-10T22:15:48.867Z,58.33
2022-11-10T22:18:36.480Z,61.80
2022-11-10T22:20:57.515Z,55.97
2022-11-10T22:23:18.204Z,56.38
2022-11-10T22:25:39.625Z,66.10
2022-11-10T22:28:02.769Z,68.28
2022-11-10T22:30:24.024Z,70.88
2022-11-10T22:32:47.283Z,74.40
2022-11-10T22:35:08.230Z,70.65
2022-11-10T22:37:33.268Z,66.68
2022-11-10T22:40:12.299Z,62.58
2022-11-10T22:42:51.640Z,63.92
2022-11-10T22:45:12.049Z,68.60
2022-11-10T22:47:52.589Z,61.83
2022-11-10T22:50:13.158Z,64.60
2022-11-10T22:52:34.145Z,62.03
2022-11-10T22:54:57.406Z,60.05
2022-11-10T22:57:18.064Z,64.93
2022-11-10T23:07:25.785Z,73.28
2022-11-10T23:09:46.034Z,80.60
2022-11-10T23:12:06.460Z,76.90
2022-11-10T23:14:27.111Z,78.53
2022-11-10T23:16:47.663Z,63.08
2022-11-10T23:19:11.157Z,63.35
2022-11-10T23:21:32.764Z,66.22
2022-11-10T23:23:54.010Z,65.80
2022-11-10T23:26:15.854Z,69.80
2022-11-10T23:28:36.899Z,72.25
2022-11-10T23:31:19.445Z,84.75
2022-11-10T23:33:42.115Z,86.65
2022-11-10T23:36:03.463Z,86.28
2022-11-10T23:38:29.227Z,78.68
2022-11-10T23:40:55.686Z,82.18
2022-11-10T23:43:16.597Z,72.32
2022-11-10T23:46:05.420Z,88.07
2022-11-10T23:48:19.247Z,101.47
2022-11-10T23:50:40.687Z,118.03
2022-11-10T23:53:04.388Z,103.40
2022-11-10T23:55:25.271Z,91.45
2022-11-10T23:57:46.941Z,79.63
